Wind from 340 at 1 knots gusting 3

Wave height 2.0 meters (6 feet), 11 second period

Air temperature 10.9° C
Water temperature 9.8° C

Last reported at 2014-Apr-24 07:50 UTC.
Time now 2014-Apr-24 09:11 UTC

Location: N 38°12' W 123°18'.
View on Google Maps.

See reports from other nearby stations

Tides Stations Pressure Air Temp Water Temp Dewpoint Dewpoint depression Visibility Wind Speed Wind Dir Waves Ship positions

  
sailing weather and tide predictions

Bodega Bay - 48NM North Northwest of San Francisco, CA weather

date/time (UTC)wind fromknots sea level pressurealtimeterstation pressurevisibilityair tempwater tempwave heightnotes
2014-Apr-24 07:50 340 1 gusting 3 10.9 9.8 2.0
2014-Apr-24 06:50 320 3 gusting 5 10.5 9.8 1.8
2014-Apr-24 05:50 320 5 gusting 5 10.6 9.8 1.9
2014-Apr-24 03:50 320 5 gusting 7 10.5 9.8 1.9
2014-Apr-24 00:50 310 11 gusting 13 11.3 9.9 2.0
2014-Apr-23 21:50 290 11 gusting 15 11.010.1 2.1
2014-Apr-23 20:50 280 13 gusting 15 10.710.0 2.2
2014-Apr-23 18:50 290 11 gusting 13 10.6 9.7 2.2
2014-Apr-23 15:50 310 7 gusting 9 9.9 9.5 2.0
2014-Apr-23 14:50 320 7 gusting 9 9.9 9.4 2.1
2014-Apr-23 13:50 330 5 gusting 7 9.9 9.4
2014-Apr-23 12:50 320 11 gusting 11 9.9 9.4 2.0
2014-Apr-23 11:50 330 13 gusting 15 10.1 9.4 2.1
2014-Apr-23 10:50 330 11 gusting 13 10.1 9.5 2.2
2014-Apr-23 07:50 320 13 gusting 15 10.2 9.5 1.9
2014-Apr-23 04:50 320 15 gusting 19 10.4 9.6 2.3
2014-Apr-23 03:50 320 15 gusting 19 10.4 9.7 2.3
2014-Apr-23 02:50 310 15 gusting 17 10.6 9.8 2.3
2014-Apr-23 00:50 300 13 gusting 17 10.8 9.8 2.3
2014-Apr-22 22:50 300 11 10.5
2014-Apr-22 21:50 300 13 gusting 15 10.5 9.7 2.5
2014-Apr-22 20:50 300 13 gusting 17 10.3 9.6 2.2
2014-Apr-22 19:50 300 11 gusting 15 10.2 9.6 2.3
2014-Apr-22 18:50 310 13 gusting 15 10.1 9.5 2.6
2014-Apr-22 17:50 310 11 gusting 13 10.0 9.4 2.5
2014-Apr-22 15:50 320 11 gusting 13 9.9 9.3 2.5
2014-Apr-22 12:50 310 17 gusting 21 10.1 9.3 2.9
2014-Apr-22 10:50 300 17 gusting 21 10.2 9.3